Time;durP1;ratioP1;P1;durP2;ratioP2;P2;SDS_P1;SDS_P2;PMS_P1;PMS_P2;Temp;Humidity;BMP_temperature;BMP_pressure;BME280_temperature;BME280_humidity;BME280_pressure;Samples;Min_cycle;Max_cycle;Signal;HPM_P1;HPM_P2
2021/08/29 00:10:03;;;;;;;1999.90;999.90;;;;;;;18.74;80.03;101079.16;15737892;28;20059;-63
2021/08/29 00:17:46;;;;;;;;;;;;;;;;;;;;;
2021/08/29 00:26:19;;;;;;;1999.90;999.90;;;;;;;18.68;80.17;101072.22;15743624;28;20048;-61
2021/08/29 00:34:35;;;;;;;1999.90;999.90;;;;;;;18.71;79.59;101068.63;15749510;28;20459;-60
2021/08/29 00:42:38;;;;;;;1999.90;999.90;;;;;;;18.61;79.91;101057.91;15755950;28;20044;-62
2021/08/29 00:50:29;;;;;;;1999.90;999.90;;;;;;;18.58;79.47;101061.53;15783281;28;20102;-58
2021/08/29 00:58:17;;;;;;;1999.90;999.90;;;;;;;18.53;79.92;101061.81;15775547;28;20032;-60
2021/08/29 01:06:14;;;;;;;;;;;;;;;;;;;;;
2021/08/29 01:14:14;;;;;;;1999.90;999.90;;;;;;;18.58;80.14;101055.88;15776577;28;20549;-62
2021/08/29 01:21:49;;;;;;;1999.90;999.90;;;;;;;18.59;79.58;101063.97;15778894;28;20041;-63
2021/08/29 01:29:25;;;;;;;1999.90;999.90;;;;;;;18.49;79.63;101058.94;15791673;28;20071;-62
2021/08/29 01:37:00;;;;;;;1999.90;999.90;;;;;;;18.56;80.40;101063.91;15787448;28;20135;-62
2021/08/29 01:44:35;;;;;;;1999.90;999.90;;;;;;;18.43;80.64;101061.25;15782355;28;20063;-63
2021/08/29 01:52:53;;;;;;;1999.90;999.90;;;;;;;18.52;80.57;101071.50;15760538;28;20044;-62
2021/08/29 02:01:14;;;;;;;;;;;;;;;;;;;;;
2021/08/29 02:09:39;;;;;;;;;;;;;;;;;;;;;
2021/08/29 02:17:45;;;;;;;1999.90;999.90;;;;;;;18.60;80.12;101039.34;15760609;28;20062;-64
2021/08/29 02:25:19;;;;;;;1999.90;999.90;;;;;;;18.61;79.47;101036.13;15756659;28;20094;-62
2021/08/29 02:33:07;;;;;;;1999.90;999.90;;;;;;;18.66;79.67;101037.88;15774092;28;20064;-62
2021/08/29 02:40:43;;;;;;;1999.90;999.90;;;;;;;18.56;79.95;101035.66;15749576;28;20048;-60
2021/08/29 02:48:29;;;;;;;1999.90;999.90;;;;;;;18.67;79.14;101033.84;15773567;28;20040;-61
2021/08/29 02:56:05;;;;;;;1999.90;999.90;;;;;;;18.53;80.25;101033.56;15781720;28;20044;-63
2021/08/29 03:03:45;;;;;;;1999.90;999.90;;;;;;;18.56;79.58;101030.00;15751150;28;20089;-63
2021/08/29 03:11:27;;;;;;;1999.90;999.90;;;;;;;18.54;80.31;101033.19;15791290;28;20493;-62
2021/08/29 03:19:07;;;;;;;1999.90;999.90;;;;;;;18.62;80.02;101031.28;15732965;28;20059;-62
2021/08/29 03:27:52;;;;;;;1999.90;999.90;;;;;;;18.67;80.17;101036.66;15785700;28;20414;-64
2021/08/29 03:35:28;;;;;;;1999.90;999.90;;;;;;;18.58;80.08;101034.06;15761869;28;20119;-63
2021/08/29 03:43:03;;;;;;;1999.90;999.90;;;;;;;18.55;80.46;101032.00;15798603;28;20395;-62
2021/08/29 03:50:38;;;;;;;1999.90;999.90;;;;;;;18.51;80.97;101019.00;15776210;28;20404;-63
2021/08/29 03:58:12;;;;;;;1999.90;999.90;;;;;;;18.55;80.15;101026.34;15764416;28;20058;-63
2021/08/29 04:06:00;;;;;;;1999.90;999.90;;;;;;;18.49;80.42;101022.22;15807103;28;20043;-63
2021/08/29 04:13:36;;;;;;;1999.90;999.90;;;;;;;18.37;80.25;101014.75;15763791;28;20032;-63
2021/08/29 04:21:36;;;;;;;1999.90;999.90;;;;;;;18.34;79.74;101018.34;15803629;28;20135;-64
2021/08/29 04:29:10;;;;;;;1999.90;999.90;;;;;;;18.23;80.34;101014.50;15764383;28;20413;-63
2021/08/29 04:36:43;;;;;;;1999.90;999.90;;;;;;;18.30;80.43;101019.47;15781087;28;20513;-62
2021/08/29 04:44:32;;;;;;;1999.90;999.90;;;;;;;18.28;80.38;101033.97;15778776;28;20044;-63
2021/08/29 04:52:14;;;;;;;1999.90;999.90;;;;;;;18.31;80.33;101029.59;15761862;28;20041;-62
2021/08/29 05:00:11;;;;;;;1999.90;999.90;;;;;;;18.28;80.41;101025.50;15771344;28;20131;-62
2021/08/29 05:07:51;;;;;;;1999.90;999.90;;;;;;;18.36;79.84;101023.63;15783123;28;20143;-63
2021/08/29 05:15:50;;;;;;;1999.90;999.90;;;;;;;18.30;79.69;101030.78;15757128;28;20089;-63
2021/08/29 05:23:39;;;;;;;1999.90;999.90;;;;;;;18.29;79.87;101027.13;15782468;28;20049;-64
2021/08/29 05:32:16;;;;;;;1999.90;999.90;;;;;;;18.35;80.58;101024.81;15784165;28;20043;-64
2021/08/29 05:39:51;;;;;;;1999.90;999.90;;;;;;;18.41;80.96;101029.75;15744596;28;20097;-62
2021/08/29 05:47:47;;;;;;;1999.90;999.90;;;;;;;18.42;80.48;101031.38;15781539;28;20062;-60
2021/08/29 05:55:23;;;;;;;1999.90;999.90;;;;;;;18.46;80.79;101037.13;15764435;28;20048;-63
2021/08/29 06:02:57;;;;;;;1999.90;999.90;;;;;;;18.55;79.99;101039.66;15755765;28;20044;-62
2021/08/29 06:10:41;;;;;;;1999.90;999.90;;;;;;;18.50;80.28;101037.97;15722938;28;20459;-62
2021/08/29 06:18:20;;;;;;;1999.90;999.90;;;;;;;18.49;80.28;101032.72;15738417;28;20494;-62
2021/08/29 06:26:07;;;;;;;1999.90;999.90;;;;;;;18.45;80.91;101032.66;15721170;28;20083;-65
2021/08/29 06:34:02;;;;;;;1999.90;999.90;;;;;;;18.40;81.58;101039.44;15746707;28;20441;-63
2021/08/29 06:41:49;;;;;;;1999.90;999.90;;;;;;;18.44;81.64;101031.84;15758647;28;20552;-66
2021/08/29 06:49:38;;;;;;;1999.90;999.90;;;;;;;18.56;80.10;101028.00;15748773;28;20044;-63
2021/08/29 06:57:40;;;;;;;1999.90;999.90;;;;;;;18.46;80.97;101032.28;15748907;28;20117;-62
2021/08/29 07:05:14;;;;;;;1999.90;999.90;;;;;;;18.36;81.01;101023.63;15748175;28;20029;-63
2021/08/29 07:13:27;;;;;;;1999.90;999.90;;;;;;;18.56;79.89;101019.50;15755163;28;20139;-61
2021/08/29 07:21:02;;;;;;;1999.90;999.90;;;;;;;18.42;80.90;101016.44;15794629;28;20482;-62
2021/08/29 07:29:03;;;;;;;1999.90;999.90;;;;;;;18.27;80.91;101015.41;15765919;28;20040;-63
2021/08/29 07:36:58;;;;;;;1999.90;999.90;;;;;;;18.30;81.04;101033.59;15779691;28;20040;-63
2021/08/29 07:44:34;;;;;;;1999.90;999.90;;;;;;;18.39;81.56;101034.97;15756593;28;20049;-61
2021/08/29 07:52:11;;;;;;;1999.90;999.90;;;;;;;18.44;81.51;101034.66;15773358;28;20059;-63
2021/08/29 08:00:04;;;;;;;1999.90;999.90;;;;;;;18.29;81.21;101040.44;15759958;28;20052;-63
2021/08/29 08:07:46;;;;;;;1999.90;999.90;;;;;;;18.48;80.59;101036.72;15746958;28;20043;-62
2021/08/29 08:16:15;;;;;;;1999.90;999.90;;;;;;;18.67;80.46;101045.97;15767341;28;20146;-61
2021/08/29 08:24:12;;;;;;;1999.90;999.90;;;;;;;18.71;80.37;101046.00;15785706;28;20409;-61
2021/08/29 08:31:48;;;;;;;1999.90;999.90;;;;;;;18.54;80.62;101047.31;15736067;28;20084;-60
2021/08/29 08:40:21;;;;;;;1999.90;999.90;;;;;;;18.78;80.09;101048.13;15667544;28;20049;-63
2021/08/29 08:47:58;;;;;;;1999.90;999.90;;;;;;;18.62;79.92;101060.38;15725121;28;20059;-64
2021/08/29 08:56:03;;;;;;;1999.90;999.90;;;;;;;19.26;78.64;101060.50;15731126;28;20099;-60
2021/08/29 09:03:58;;;;;;;1999.90;999.90;;;;;;;19.15;77.62;101060.38;15741756;28;20041;-61
2021/08/29 09:11:35;;;;;;;1999.90;999.90;;;;;;;19.45;78.92;101040.53;15773687;28;20048;-58
2021/08/29 09:19:09;;;;;;;1999.90;999.90;;;;;;;19.83;77.45;101042.22;15752099;28;20090;-61
2021/08/29 09:26:47;;;;;;;1999.90;999.90;;;;;;;20.12;75.57;101051.03;15756518;28;20048;-59
2021/08/29 09:43:45;;;;;;;1999.90;999.90;;;;;;;21.68;70.94;101036.25;15783507;28;20032;-61
2021/08/29 09:51:19;;;;;;;1999.90;999.90;;;;;;;21.69;67.91;101033.00;15767738;28;20052;-61
2021/08/29 09:59:08;;;;;;;1999.90;999.90;;;;;;;21.02;71.05;101030.66;15761911;28;20040;-63
2021/08/29 10:07:11;;;;;;;1999.90;999.90;;;;;;;23.19;70.18;101025.28;15799783;28;20048;-64
2021/08/29 10:14:43;;;;;;;1999.90;999.90;;;;;;;22.66;67.20;101028.22;15768365;28;20045;-63
2021/08/29 10:22:37;;;;;;;1999.90;999.90;;;;;;;22.76;65.89;101021.69;15819767;28;20055;-64
2021/08/29 10:30:17;;;;;;;1999.90;999.90;;;;;;;22.24;66.13;101021.34;15755175;28;20035;-63
2021/08/29 10:38:10;;;;;;;1999.90;999.90;;;;;;;21.98;66.40;101027.34;15795077;28;20519;-64
2021/08/29 10:46:08;;;;;;;1999.90;999.90;;;;;;;21.97;66.01;101008.69;15772714;28;20060;-64
2021/08/29 10:54:14;;;;;;;1999.90;999.90;;;;;;;21.68;67.18;101010.69;15753035;28;20429;-61
2021/08/29 11:01:52;;;;;;;1999.90;999.90;;;;;;;22.73;63.96;100988.41;15779787;28;20489;-62
2021/08/29 11:09:47;;;;;;;1999.90;999.90;;;;;;;25.34;58.22;100996.69;15742407;28;20032;-64
2021/08/29 11:17:22;;;;;;;1999.90;999.90;;;;;;;27.30;52.48;101010.59;15758596;28;20040;-63
2021/08/29 11:25:26;;;;;;;1999.90;999.90;;;;;;;25.95;54.72;101008.13;15807077;28;20572;-64
2021/08/29 11:33:26;;;;;;;1999.90;999.90;;;;;;;26.36;52.62;101012.72;15805503;28;20036;-63
2021/08/29 11:41:14;;;;;;;1999.90;999.90;;;;;;;25.97;55.39;101011.34;15755104;28;20056;-63
2021/08/29 11:48:51;;;;;;;1999.90;999.90;;;;;;;24.62;58.24;101005.25;15789586;28;20032;-64
2021/08/29 11:56:30;;;;;;;1999.90;999.90;;;;;;;23.68;58.83;100997.81;15829211;27;20051;-63
2021/08/29 12:04:04;;;;;;;1999.90;999.90;;;;;;;24.01;59.93;100996.38;15846913;28;20036;-61
2021/08/29 12:11:48;;;;;;;1999.90;999.90;;;;;;;23.24;58.90;100990.69;15827991;28;20413;-62
2021/08/29 12:19:59;;;;;;;1999.90;999.90;;;;;;;25.36;55.06;100988.50;15750912;28;20428;-59
2021/08/29 12:28:06;;;;;;;1999.90;999.90;;;;;;;24.52;55.80;100983.34;15829116;28;20052;-61
2021/08/29 12:35:41;;;;;;;1999.90;999.90;;;;;;;23.23;59.10;100988.25;15813382;28;20047;-59
2021/08/29 12:43:20;;;;;;;1999.90;999.90;;;;;;;22.82;61.85;100983.06;15845280;28;20036;-61
2021/08/29 12:51:02;;;;;;;1999.90;999.90;;;;;;;22.53;62.88;100979.50;15813819;28;20540;-62
2021/08/29 12:58:36;;;;;;;1999.90;999.90;;;;;;;22.56;63.19;100972.16;15819424;28;20566;-62
2021/08/29 13:06:11;;;;;;;1999.90;999.90;;;;;;;22.44;61.79;100968.53;15762167;28;20501;-62
2021/08/29 13:13:51;;;;;;;1999.90;999.90;;;;;;;22.21;63.96;100982.38;15767127;28;20370;-58
2021/08/29 13:21:25;;;;;;;1999.90;999.90;;;;;;;22.02;63.34;100977.06;15790082;28;20049;-59
2021/08/29 13:29:00;;;;;;;1999.90;999.90;;;;;;;22.13;63.46;100970.19;15774994;28;20085;-54
2021/08/29 13:36:33;;;;;;;1999.90;999.90;;;;;;;22.00;63.67;100970.97;15763266;28;20048;-59
2021/08/29 13:44:07;;;;;;;;;;;;;;;22.16;64.41;100974.22;15754655;28;20051;-62
2021/08/29 13:51:39;;;;;;;1999.90;999.90;;;;;;;22.00;66.84;100976.66;15750892;28;19923;-63
2021/08/29 13:59:12;;;;;;;1999.90;999.90;;;;;;;21.74;66.21;100964.44;15810509;27;20130;-61
2021/08/29 14:06:44;;;;;;;1999.90;999.90;;;;;;;21.72;67.47;100957.53;15810235;28;20092;-61
2021/08/29 14:14:18;;;;;;;1999.90;999.90;;;;;;;21.51;66.85;100956.28;15783784;28;20051;-62
2021/08/29 14:21:51;;;;;;;1999.90;999.90;;;;;;;21.37;67.69;100944.91;15763068;28;20510;-60
2021/08/29 14:29:24;;;;;;;1999.90;999.90;;;;;;;21.81;69.18;100946.59;15759475;28;20044;-63
2021/08/29 14:36:58;;;;;;;1999.90;999.90;;;;;;;21.61;69.63;100944.13;15776520;28;20072;-63
2021/08/29 14:44:31;;;;;;;1999.90;999.90;;;;;;;21.74;70.43;100940.91;15775776;28;20409;-62
2021/08/29 14:52:04;;;;;;;1999.90;999.90;;;;;;;21.47;71.77;100934.78;15763645;28;20101;-58
2021/08/29 14:59:45;;;;;;;1999.90;999.90;;;;;;;21.40;70.78;100918.53;15763915;28;20098;-63
2021/08/29 15:07:17;;;;;;;1999.90;999.90;;;;;;;21.22;70.63;100929.81;15761452;28;20033;-64
2021/08/29 15:14:51;;;;;;;1999.90;999.90;;;;;;;21.08;71.51;100918.44;15759052;28;20072;-62
2021/08/29 15:22:24;;;;;;;1999.90;999.90;;;;;;;21.03;72.60;100928.13;15773921;28;20051;-62
2021/08/29 15:29:58;;;;;;;;;;;;;;;21.14;73.73;100918.84;15776181;28;20044;-63
2021/08/29 15:37:33;;;;;;;1999.90;999.90;;;;;;;21.01;73.47;100901.38;15783670;28;19927;-61
2021/08/29 15:45:08;;;;;;;1999.90;999.90;;;;;;;20.73;75.68;100908.53;15777361;28;20123;-63
2021/08/29 15:52:42;;;;;;;1999.90;999.90;;;;;;;20.73;75.38;100893.56;15832374;28;20050;-60
2021/08/29 16:00:17;;;;;;;1999.90;999.90;;;;;;;20.34;76.43;100894.16;15837431;28;20046;-58
2021/08/29 16:07:50;;;;;;;1999.90;999.90;;;;;;;20.12;76.81;100884.69;15836303;28;20420;-59
2021/08/29 16:15:29;;;;;;;1999.90;999.90;;;;;;;20.05;76.24;100890.31;15857360;28;20108;-59
2021/08/29 16:23:07;;;;;;;1999.90;999.90;;;;;;;20.02;76.43;100895.97;15796413;28;20050;-61
2021/08/29 16:30:41;;;;;;;;;;;;;;;20.01;77.42;100892.31;15787416;28;20573;-61
2021/08/29 16:38:16;;;;;;;1999.90;999.90;;;;;;;19.99;77.32;100888.22;15770985;28;19950;-61
2021/08/29 16:45:56;;;;;;;1999.90;999.90;;;;;;;19.86;78.41;100890.56;15779942;28;20097;-61
2021/08/29 16:53:32;;;;;;;1999.90;999.90;;;;;;;19.75;78.55;100884.00;15799041;28;20044;-60
2021/08/29 17:01:08;;;;;;;1999.90;999.90;;;;;;;19.48;80.12;100889.78;15772605;28;20054;-59
2021/08/29 17:08:41;;;;;;;1999.90;999.90;;;;;;;19.63;79.65;100873.78;15750792;28;20094;-56
2021/08/29 17:16:16;;;;;;;1999.90;999.90;;;;;;;19.52;78.90;100867.19;15813091;28;20567;-60
2021/08/29 17:23:55;;;;;;;1999.90;999.90;;;;;;;19.51;78.97;100874.88;15778233;28;20555;-60
2021/08/29 17:31:33;;;;;;;1999.90;999.90;;;;;;;19.52;79.33;100872.84;15784397;28;20127;-58
2021/08/29 17:39:15;;;;;;;1999.90;999.90;;;;;;;19.43;80.06;100881.66;15775881;28;20044;-60
2021/08/29 17:46:55;;;;;;;1999.90;999.90;;;;;;;19.51;80.01;100879.72;15739498;28;20068;-59
2021/08/29 17:54:31;;;;;;;1999.90;999.90;;;;;;;19.33;80.50;100896.50;15762852;28;20043;-59
2021/08/29 18:02:18;;;;;;;1999.90;999.90;;;;;;;19.11;81.37;100881.31;15797277;28;20126;-67
2021/08/29 18:09:52;;;;;;;1999.90;999.90;;;;;;;19.22;79.61;100890.75;15835556;28;20536;-60
2021/08/29 18:17:32;;;;;;;1999.90;999.90;;;;;;;18.95;81.93;100898.50;15767433;28;20071;-59
2021/08/29 18:25:09;;;;;;;1999.90;999.90;;;;;;;18.78;82.37;100912.44;15775631;28;20048;-60
2021/08/29 18:32:45;;;;;;;1999.90;999.90;;;;;;;19.01;81.47;100913.94;15775053;28;20048;-61
2021/08/29 18:40:32;;;;;;;1999.90;999.90;;;;;;;18.89;81.94;100921.88;15796907;28;20501;-60
2021/08/29 18:48:07;;;;;;;1999.90;999.90;;;;;;;19.19;81.02;100931.13;15773955;28;20123;-61
2021/08/29 18:55:44;;;;;;;1999.90;999.90;;;;;;;19.16;81.59;100931.06;15774967;28;20132;-60
2021/08/29 19:03:22;;;;;;;1999.90;999.90;;;;;;;19.13;82.31;100927.00;15790983;28;20062;-59
2021/08/29 19:10:56;;;;;;;1999.90;999.90;;;;;;;18.95;81.91;100935.25;15770028;28;20074;-57
2021/08/29 19:18:31;;;;;;;1999.90;999.90;;;;;;;18.70;83.24;100932.13;15771199;28;20421;-58
2021/08/29 19:26:15;;;;;;;1999.90;999.90;;;;;;;18.78;82.84;100935.88;15777593;28;20052;-61
2021/08/29 19:33:54;;;;;;;1999.90;999.90;;;;;;;19.13;81.17;100940.34;15768989;28;20547;-60
2021/08/29 19:41:31;;;;;;;1999.90;999.90;;;;;;;19.24;80.42;100932.78;15775770;28;20044;-61
2021/08/29 19:49:15;;;;;;;1999.90;999.90;;;;;;;19.17;80.91;100924.19;15783818;28;20073;-62
2021/08/29 19:57:06;;;;;;;;;;;;;;;18.80;81.74;100927.81;15771257;28;20098;-60
2021/08/29 20:04:51;;;;;;;1999.90;999.90;;;;;;;19.13;80.78;100934.69;15766224;28;20346;-59
2021/08/29 20:12:33;;;;;;;1999.90;999.90;;;;;;;18.78;82.15;100941.53;15807644;28;20048;-60
2021/08/29 20:20:16;;;;;;;1999.90;999.90;;;;;;;18.91;81.04;100939.25;15805491;28;20040;-59
2021/08/29 20:27:49;;;;;;;1999.90;999.90;;;;;;;18.94;81.48;100927.97;15806261;28;20044;-62
2021/08/29 20:35:27;;;;;;;1999.90;999.90;;;;;;;18.82;81.97;100933.06;15763982;28;20040;-58
2021/08/29 20:43:05;;;;;;;1999.90;999.90;;;;;;;18.89;82.24;100925.50;15728850;28;20593;-62
2021/08/29 20:50:43;;;;;;;1999.90;999.90;;;;;;;19.01;81.77;100918.78;15766399;28;20128;-60
2021/08/29 20:58:31;;;;;;;1999.90;999.90;;;;;;;18.94;81.28;100938.47;15743266;28;20052;-59
2021/08/29 21:06:07;;;;;;;1999.90;999.90;;;;;;;18.12;83.75;100940.09;15791466;28;20067;-59
2021/08/29 21:13:45;;;;;;;1999.90;999.90;;;;;;;18.13;83.14;100938.91;15803383;28;20470;-62
2021/08/29 21:21:20;;;;;;;1999.90;999.90;;;;;;;17.96;84.04;100951.56;15757505;28;20040;-60
2021/08/29 21:28:55;;;;;;;1999.90;999.90;;;;;;;17.88;84.61;100961.91;15738760;28;20127;-60
2021/08/29 21:36:31;;;;;;;1999.90;999.90;;;;;;;17.95;84.12;100952.75;15790157;28;20119;-62
2021/08/29 21:44:06;;;;;;;1999.90;999.90;;;;;;;17.80;84.90;100953.69;15766261;28;20044;-61
2021/08/29 21:52:26;;;;;;;1999.90;999.90;;;;;;;18.05;83.89;100948.47;15782673;28;20048;-60
2021/08/29 22:16:38;;;;;;;;;;;;;;;;;;;;;
2021/08/29 22:24:23;;;;;;;1999.90;999.90;;;;;;;18.06;83.37;100967.03;15761462;28;20379;-59
2021/08/29 22:32:28;;;;;;;1999.90;999.90;;;;;;;18.14;83.59;100954.69;15757616;28;20040;-60
2021/08/29 22:40:02;;;;;;;1999.90;999.90;;;;;;;18.19;82.85;100957.16;15795956;28;20231;-58
2021/08/29 22:47:42;;;;;;;1999.90;999.90;;;;;;;18.22;82.90;100964.88;15797095;28;20493;-61
2021/08/29 22:55:19;;;;;;;1999.90;999.90;;;;;;;18.16;83.44;100958.75;15761852;28;20045;-58
2021/08/29 23:02:55;;;;;;;1999.90;999.90;;;;;;;18.30;81.80;100955.31;15765104;28;20072;-58
2021/08/29 23:10:46;;;;;;;1999.90;999.90;;;;;;;18.31;82.15;100948.47;15765133;28;20059;-57
2021/08/29 23:18:24;;;;;;;1999.90;999.90;;;;;;;18.28;82.47;100943.59;15763999;28;20045;-63
2021/08/29 23:26:15;;;;;;;1999.90;999.90;;;;;;;18.28;82.36;100946.41;15781356;28;20351;-57
2021/08/29 23:33:55;;;;;;;1999.90;999.90;;;;;;;18.24;81.97;100944.75;15747767;28;20067;-58
2021/08/29 23:41:30;;;;;;;1999.90;999.90;;;;;;;18.24;81.66;100942.75;15787134;28;20667;-62
2021/08/29 23:49:11;;;;;;;1999.90;999.90;;;;;;;18.16;81.81;100957.94;15767607;28;20045;-62
2021/08/29 23:56:49;;;;;;;1999.90;999.90;;;;;;;18.16;81.77;100964.41;15801425;28;20102;-58
